createdAt,value
2022-08-09T00:00:11.841Z,14.23
2022-08-09T00:02:42.936Z,13.75
2022-08-09T00:06:15.791Z,12.93
2022-08-09T00:08:04.155Z,14.85
2022-08-09T00:10:37.809Z,13.10
2022-08-09T00:13:17.263Z,12.55
2022-08-09T00:15:59.015Z,11.52
2022-08-09T00:18:29.030Z,13.02
2022-08-09T00:20:55.731Z,14.73
2022-08-09T00:23:54.769Z,11.18
2022-08-09T00:26:11.259Z,12.25
2022-08-09T00:28:39.652Z,12.15
2022-08-09T00:31:30.402Z,12.07
2022-08-09T00:33:55.129Z,11.50
2022-08-09T00:36:29.702Z,12.15
2022-08-09T00:44:10.258Z,12.55
2022-08-09T00:44:24.782Z,14.10
2022-08-09T00:46:56.248Z,12.95
2022-08-09T00:49:28.227Z,12.43
2022-08-09T00:51:57.328Z,11.18
2022-08-09T00:54:31.661Z,11.80
2022-08-09T00:57:02.243Z,12.82
2022-08-09T00:59:41.667Z,11.52
2022-08-09T01:02:19.252Z,12.85
2022-08-09T01:04:58.203Z,12.40
2022-08-09T01:08:01.107Z,12.43
2022-08-09T01:10:39.180Z,10.65
2022-08-09T01:13:53.531Z,11.68
2022-08-09T01:16:24.820Z,11.15
2022-08-09T01:19:01.871Z,11.98
2022-08-09T01:21:51.217Z,11.38
2022-08-09T01:24:39.065Z,11.55
2022-08-09T01:27:08.820Z,9.82
2022-08-09T01:29:41.080Z,13.38
2022-08-09T01:32:30.738Z,12.35
2022-08-09T01:35:07.082Z,10.88
2022-08-09T01:38:08.310Z,11.40
2022-08-09T01:40:33.803Z,11.52
2022-08-09T01:43:05.176Z,10.80
2022-08-09T01:45:34.046Z,11.15
2022-08-09T01:48:06.018Z,11.27
2022-08-09T01:50:36.850Z,11.13
2022-08-09T01:53:19.517Z,12.38
2022-08-09T01:55:48.179Z,11.32
2022-08-09T01:58:16.836Z,10.27
2022-08-09T02:00:46.315Z,11.43
2022-08-09T02:03:19.434Z,8.27
2022-08-09T02:06:03.259Z,8.77
2022-08-09T02:08:57.546Z,8.85
2022-08-09T02:11:42.571Z,8.55
2022-08-09T02:14:14.993Z,10.45
2022-08-09T02:16:59.936Z,7.82
2022-08-09T02:19:43.318Z,8.75
2022-08-09T02:22:37.865Z,9.27
2022-08-09T02:25:15.429Z,10.05
2022-08-09T02:27:57.679Z,8.57
2022-08-09T02:30:31.744Z,9.32
2022-08-09T02:33:00.913Z,8.60
2022-08-09T02:36:03.640Z,9.50
2022-08-09T02:38:22.064Z,7.93
2022-08-09T02:41:09.262Z,8.18
2022-08-09T02:43:42.408Z,9.00
2022-08-09T02:46:24.246Z,8.18
2022-08-09T02:48:53.042Z,8.05
2022-08-09T02:51:22.413Z,7.93
2022-08-09T02:53:59.698Z,8.55
2022-08-09T02:56:30.376Z,8.65
2022-08-09T02:58:59.760Z,7.93
2022-08-09T03:01:42.756Z,8.57
2022-08-09T03:04:19.287Z,8.65
2022-08-09T03:06:48.698Z,9.02
2022-08-09T03:09:17.677Z,8.18
2022-08-09T03:12:09.644Z,10.00
2022-08-09T03:14:32.052Z,8.45
2022-08-09T03:17:02.627Z,8.70
2022-08-09T03:19:58.594Z,8.40
2022-08-09T03:22:25.498Z,7.57
2022-08-09T03:25:06.211Z,7.20
2022-08-09T03:27:50.666Z,8.32
2022-08-09T03:30:29.991Z,8.57
2022-08-09T03:33:01.846Z,6.60
2022-08-09T03:36:11.562Z,7.70
2022-08-09T03:38:29.185Z,8.30
2022-08-09T03:40:58.144Z,8.15
2022-08-09T03:43:25.238Z,7.15
2022-08-09T03:46:13.536Z,7.25
2022-08-09T03:48:51.299Z,7.88
2022-08-09T03:51:57.325Z,7.70
2022-08-09T03:54:11.168Z,7.80
2022-08-09T03:56:41.995Z,7.45
2022-08-09T03:59:20.989Z,6.68
2022-08-09T04:01:56.536Z,8.45
2022-08-09T04:04:27.192Z,7.57
2022-08-09T04:07:04.028Z,6.95
2022-08-09T04:09:48.214Z,7.55
2022-08-09T04:12:29.948Z,6.70
2022-08-09T04:15:01.726Z,6.75
2022-08-09T04:17:38.270Z,5.97
2022-08-09T04:20:07.422Z,6.68
2022-08-09T04:22:34.693Z,6.13
2022-08-09T04:25:04.819Z,7.40
2022-08-09T04:27:32.832Z,5.18
2022-08-09T04:30:04.747Z,5.30
2022-08-09T04:32:36.984Z,5.65
2022-08-09T04:35:08.633Z,6.22
2022-08-09T04:37:45.203Z,5.70
2022-08-09T04:40:28.811Z,5.72
2022-08-09T04:43:00.261Z,5.60
2022-08-09T04:45:30.522Z,6.10
2022-08-09T04:48:04.240Z,5.22
2022-08-09T04:50:37.788Z,5.32
2022-08-09T04:53:13.607Z,5.68
2022-08-09T04:55:57.478Z,6.20
2022-08-09T04:58:25.817Z,5.15
2022-08-09T05:00:52.734Z,5.53
2022-08-09T05:03:41.058Z,4.45
2022-08-09T05:06:09.257Z,6.45
2022-08-09T05:08:36.209Z,6.00
2022-08-09T05:11:06.868Z,4.63
2022-08-09T05:13:38.896Z,4.63
2022-08-09T05:16:10.127Z,4.95
2022-08-09T05:18:57.068Z,5.03
2022-08-09T05:21:24.383Z,5.43
2022-08-09T05:23:56.898Z,5.15
2022-08-09T05:26:36.229Z,4.88
2022-08-09T05:29:04.864Z,4.13
2022-08-09T05:31:44.443Z,4.45
2022-08-09T05:34:16.634Z,4.18
2022-08-09T05:36:46.792Z,4.82
2022-08-09T05:39:29.343Z,3.67
2022-08-09T05:42:02.761Z,4.95
2022-08-09T05:44:34.663Z,4.40
2022-08-09T05:47:05.656Z,5.28
2022-08-09T05:50:30.022Z,3.63
2022-08-09T05:52:19.967Z,4.47
2022-08-09T05:54:46.718Z,3.83
2022-08-09T05:57:17.499Z,4.07
2022-08-09T05:59:45.949Z,3.45
2022-08-09T06:02:16.835Z,5.10
2022-08-09T06:04:44.769Z,3.92
2022-08-09T06:07:21.597Z,4.25
2022-08-09T06:10:02.303Z,5.80
2022-08-09T06:12:30.300Z,3.42
2022-08-09T06:15:01.021Z,3.67
2022-08-09T06:17:40.004Z,3.60
2022-08-09T06:20:08.091Z,3.35
2022-08-09T06:22:35.149Z,3.08
2022-08-09T06:25:02.122Z,2.85
2022-08-09T06:27:42.126Z,3.25
2022-08-09T06:30:11.029Z,2.72
2022-08-09T06:32:59.510Z,2.80
2022-08-09T06:35:56.338Z,3.97
2022-08-09T06:38:15.985Z,7.57
2022-08-09T06:40:43.279Z,2.20
2022-08-09T06:43:10.527Z,4.13
2022-08-09T06:46:06.707Z,3.03
2022-08-09T06:48:30.739Z,4.82
2022-08-09T06:50:59.774Z,4.30
2022-08-09T06:53:27.212Z,4.10
2022-08-09T06:56:00.464Z,2.92
2022-08-09T06:58:40.811Z,7.28
2022-08-09T07:01:13.807Z,4.03
2022-08-09T07:03:52.176Z,2.47
2022-08-09T07:06:19.941Z,2.95
2022-08-09T07:08:46.909Z,12.98
2022-08-09T07:11:23.414Z,7.95
2022-08-09T07:14:05.584Z,2.65
2022-08-09T07:16:43.014Z,6.05
2022-08-09T07:19:18.764Z,2.85
2022-08-09T07:21:57.010Z,7.13
2022-08-09T07:24:32.064Z,3.25
2022-08-09T07:27:23.852Z,3.08
2022-08-09T07:29:58.393Z,3.90
2022-08-09T07:32:32.273Z,2.22
2022-08-09T07:37:45.270Z,2.35
2022-08-09T07:40:20.048Z,3.85
2022-08-09T07:42:59.024Z,1.90
2022-08-09T07:45:38.240Z,3.95
2022-08-09T07:48:25.698Z,2.25
2022-08-09T07:51:09.308Z,4.68
2022-08-09T07:54:05.671Z,2.45
2022-08-09T07:56:32.020Z,2.40
2022-08-09T07:58:59.567Z,3.05
2022-08-09T08:01:33.944Z,2.63
2022-08-09T08:04:04.464Z,1.73
2022-08-09T08:06:37.412Z,2.17
2022-08-09T08:09:36.396Z,1.42
2022-08-09T08:12:28.148Z,2.70
2022-08-09T08:14:55.577Z,1.50
2022-08-09T08:17:35.293Z,1.85
2022-08-09T08:20:13.271Z,1.60
2022-08-09T08:22:40.828Z,1.35
2022-08-09T08:25:13.287Z,1.40
2022-08-09T08:27:43.174Z,1.90
2022-08-09T08:30:11.773Z,1.30
2022-08-09T08:32:52.102Z,1.55
2022-08-09T08:35:22.220Z,2.42
2022-08-09T08:37:59.673Z,1.83
2022-08-09T08:40:33.298Z,2.65
2022-08-09T08:43:03.271Z,2.15
2022-08-09T08:45:51.613Z,4.88
2022-08-09T08:48:22.512Z,2.50
2022-08-09T08:50:55.710Z,1.88
2022-08-09T08:53:22.806Z,4.40
2022-08-09T08:55:59.292Z,2.30
2022-08-09T08:58:29.925Z,1.42
2022-08-09T09:00:58.087Z,1.90
2022-08-09T09:03:38.022Z,2.17
2022-08-09T09:06:05.790Z,2.53
2022-08-09T09:08:37.812Z,2.05
2022-08-09T09:11:08.725Z,3.83
2022-08-09T09:13:56.893Z,2.08
2022-08-09T09:16:34.349Z,1.35
2022-08-09T09:22:04.099Z,2.45
2022-08-09T09:24:34.966Z,3.08
2022-08-09T09:27:05.774Z,5.40
2022-08-09T09:30:12.289Z,6.28
2022-08-09T09:32:34.204Z,2.78
2022-08-09T09:35:09.920Z,2.58
2022-08-09T09:37:40.519Z,1.95
2022-08-09T09:40:08.779Z,2.10
2022-08-09T09:42:36.318Z,2.88
2022-08-09T09:45:08.182Z,1.10
2022-08-09T09:47:47.897Z,1.30
2022-08-09T09:50:49.248Z,1.27
2022-08-09T09:53:21.012Z,1.20
2022-08-09T09:55:57.656Z,1.40
2022-08-09T09:58:49.039Z,1.60
2022-08-09T10:01:31.244Z,1.25
2022-08-09T10:04:16.093Z,9.13
2022-08-09T10:06:52.135Z,1.40
2022-08-09T10:09:22.312Z,1.60
2022-08-09T10:12:14.436Z,1.17
2022-08-09T10:14:49.477Z,1.50
2022-08-09T10:17:50.853Z,1.75
2022-08-09T10:20:17.315Z,3.50
2022-08-09T10:23:01.057Z,1.95
2022-08-09T10:25:34.882Z,2.00
2022-08-09T10:28:15.060Z,1.35
2022-08-09T10:32:13.556Z,1.50
2022-08-09T10:34:10.474Z,1.73
2022-08-09T10:36:20.402Z,1.33
2022-08-09T10:38:55.780Z,1.55
2022-08-09T10:41:23.983Z,0.98
2022-08-09T10:43:59.621Z,2.05
2022-08-09T10:46:57.384Z,1.58
2022-08-09T10:49:51.608Z,1.52
2022-08-09T10:52:45.151Z,0.90
2022-08-09T10:55:28.056Z,2.72
2022-08-09T10:58:00.374Z,1.15
2022-08-09T11:00:41.748Z,1.52
2022-08-09T11:03:49.883Z,1.17
2022-08-09T11:06:26.119Z,2.45
2022-08-09T11:08:53.357Z,1.20
2022-08-09T11:11:21.634Z,2.20
2022-08-09T11:14:28.489Z,3.00
2022-08-09T11:16:56.854Z,0.90
2022-08-09T11:20:11.059Z,3.75
2022-08-09T11:22:44.958Z,1.15
2022-08-09T11:25:18.958Z,1.08
2022-08-09T11:28:04.101Z,1.25
2022-08-09T11:30:35.687Z,1.58
2022-08-09T11:33:17.929Z,1.40
2022-08-09T11:35:50.047Z,1.70
2022-08-09T11:38:28.812Z,3.78
2022-08-09T11:41:38.190Z,1.20
2022-08-09T11:44:07.706Z,1.50
2022-08-09T11:46:57.791Z,1.38
2022-08-09T11:50:53.142Z,1.92
2022-08-09T11:53:15.941Z,2.30
2022-08-09T11:55:53.838Z,1.65
2022-08-09T11:58:33.099Z,0.82
2022-08-09T12:01:15.662Z,1.77
2022-08-09T12:04:04.786Z,2.30
2022-08-09T12:06:35.048Z,1.80
2022-08-09T12:09:19.707Z,1.30
2022-08-09T12:12:03.394Z,3.63
2022-08-09T12:14:48.829Z,1.90
2022-08-09T12:17:34.257Z,3.60
2022-08-09T12:20:21.603Z,1.05
2022-08-09T12:22:58.500Z,2.08
2022-08-09T12:25:35.875Z,1.80
2022-08-09T12:29:14.325Z,2.10
2022-08-09T12:31:58.223Z,1.60
2022-08-09T12:34:13.797Z,1.48
2022-08-09T12:36:59.160Z,1.58
2022-08-09T12:39:41.609Z,1.15
2022-08-09T12:42:09.874Z,1.10
2022-08-09T12:44:46.335Z,9.65
2022-08-09T12:47:13.326Z,1.30
2022-08-09T12:50:09.454Z,1.00
2022-08-09T12:52:44.258Z,1.38
2022-08-09T12:56:14.893Z,1.83
2022-08-09T12:58:27.250Z,1.67
2022-08-09T13:00:55.655Z,1.60
2022-08-09T13:03:57.222Z,2.05
2022-08-09T13:06:35.420Z,2.40
2022-08-09T13:09:13.443Z,1.90
2022-08-09T13:11:46.628Z,1.80
2022-08-09T13:14:42.858Z,1.83
2022-08-09T13:17:16.130Z,3.22
2022-08-09T13:20:07.342Z,1.73
2022-08-09T13:23:01.218Z,4.18
2022-08-09T13:25:52.940Z,2.00
2022-08-09T13:28:34.588Z,1.10
2022-08-09T13:32:13.273Z,2.45
2022-08-09T13:33:56.531Z,1.25
2022-08-09T13:36:40.391Z,2.30
2022-08-09T13:41:18.892Z,1.30
2022-08-09T13:42:14.214Z,2.58
2022-08-09T13:44:43.648Z,1.35
2022-08-09T13:47:33.834Z,1.70
2022-08-09T13:50:17.915Z,1.58
2022-08-09T13:52:47.591Z,2.40
2022-08-09T13:55:15.316Z,5.95
2022-08-09T13:57:52.953Z,4.53
2022-08-09T14:00:23.010Z,6.38
2022-08-09T14:03:02.828Z,1.95
2022-08-09T14:05:58.731Z,2.83
2022-08-09T14:08:29.699Z,4.85
2022-08-09T14:10:56.766Z,10.00
2022-08-09T14:13:28.190Z,2.65
2022-08-09T14:16:14.957Z,3.13
2022-08-09T14:18:45.785Z,2.72
2022-08-09T14:21:22.287Z,3.95
2022-08-09T14:23:55.215Z,3.55
2022-08-09T14:26:32.670Z,5.32
2022-08-09T14:30:03.939Z,3.90
2022-08-09T14:31:55.504Z,4.80
2022-08-09T14:34:31.201Z,8.70
2022-08-09T14:37:08.569Z,3.72
2022-08-09T14:39:47.828Z,2.75
2022-08-09T14:42:40.476Z,11.45
2022-08-09T14:46:40.013Z,7.35
2022-08-09T14:47:59.380Z,2.92
2022-08-09T14:50:34.855Z,2.65
2022-08-09T14:53:11.379Z,4.45
2022-08-09T14:55:42.200Z,2.50
2022-08-09T14:58:09.293Z,5.53
2022-08-09T15:00:36.983Z,2.70
2022-08-09T15:03:06.183Z,6.38
2022-08-09T15:05:33.817Z,3.08
2022-08-09T15:08:03.972Z,3.50
2022-08-09T15:10:31.649Z,4.85
2022-08-09T15:12:58.794Z,3.20
2022-08-09T15:15:28.261Z,11.35
2022-08-09T15:17:55.932Z,2.60
2022-08-09T15:21:58.054Z,2.55
2022-08-09T15:24:00.955Z,2.95
2022-08-09T15:25:58.451Z,2.42
2022-08-09T15:28:28.530Z,7.78
2022-08-09T15:31:09.798Z,2.13
2022-08-09T15:34:15.411Z,2.45
2022-08-09T15:36:28.402Z,2.65
2022-08-09T15:38:56.452Z,2.42
2022-08-09T15:41:23.240Z,7.57
2022-08-09T15:43:58.595Z,2.97
2022-08-09T15:46:32.470Z,2.28
2022-08-09T15:49:21.226Z,5.63
2022-08-09T15:52:03.580Z,3.22
2022-08-09T15:54:49.187Z,3.28
2022-08-09T15:57:18.995Z,2.40
2022-08-09T15:59:52.073Z,3.30
2022-08-09T16:02:19.466Z,2.33
2022-08-09T16:04:53.894Z,3.20
2022-08-09T16:07:20.495Z,3.85
2022-08-09T16:09:57.790Z,2.72
2022-08-09T16:12:31.278Z,2.65
2022-08-09T16:14:58.042Z,2.35
2022-08-09T16:17:28.593Z,5.30
2022-08-09T16:20:04.697Z,2.80
2022-08-09T16:22:42.415Z,3.00
2022-08-09T16:25:15.913Z,6.20
2022-08-09T16:27:42.553Z,2.22
2022-08-09T16:30:14.970Z,3.17
2022-08-09T16:33:04.702Z,3.97
2022-08-09T16:35:53.241Z,2.40
2022-08-09T16:38:18.715Z,2.35
2022-08-09T16:40:47.861Z,2.92
2022-08-09T16:43:14.926Z,1.95
2022-08-09T16:45:45.412Z,2.20
2022-08-09T16:48:39.302Z,1.90
2022-08-09T16:51:08.163Z,2.22
2022-08-09T16:53:56.308Z,2.00
2022-08-09T16:56:27.181Z,2.03
2022-08-09T16:58:57.882Z,2.08
2022-08-09T17:01:25.118Z,1.73
2022-08-09T17:03:52.353Z,3.30
2022-08-09T17:06:32.127Z,1.80
2022-08-09T17:09:17.673Z,2.75
2022-08-09T17:11:51.422Z,6.78
2022-08-09T17:14:27.511Z,2.13
2022-08-09T17:16:59.758Z,3.38
2022-08-09T17:19:46.621Z,10.32
2022-08-09T17:22:14.458Z,7.30
2022-08-09T17:24:47.582Z,4.55
2022-08-09T17:27:21.403Z,6.22
2022-08-09T17:29:48.179Z,3.88
2022-08-09T17:32:20.253Z,6.90
2022-08-09T17:35:04.447Z,8.85
2022-08-09T17:38:02.656Z,7.10
2022-08-09T17:40:26.080Z,4.85
2022-08-09T17:42:59.557Z,10.27
2022-08-09T17:46:01.535Z,3.13
2022-08-09T17:48:28.718Z,3.72
2022-08-09T17:50:59.331Z,10.45
2022-08-09T17:53:35.498Z,2.85
2022-08-09T17:56:10.892Z,4.88
2022-08-09T17:58:37.545Z,2.42
2022-08-09T18:01:09.593Z,2.70
2022-08-09T18:03:42.069Z,2.53
2022-08-09T18:06:14.853Z,3.28
2022-08-09T18:08:56.264Z,2.97
2022-08-09T18:11:23.925Z,3.17
2022-08-09T18:13:57.714Z,2.55
2022-08-09T18:16:30.497Z,2.67
2022-08-09T18:19:03.798Z,5.95
2022-08-09T18:21:40.856Z,3.88
2022-08-09T18:24:14.490Z,6.38
2022-08-09T18:26:46.847Z,5.30
2022-08-09T18:30:41.256Z,5.28
2022-08-09T18:32:04.092Z,5.32
2022-08-09T18:34:35.145Z,4.57
2022-08-09T18:37:10.603Z,4.35
2022-08-09T18:39:55.608Z,6.97
2022-08-09T18:42:31.871Z,3.30
2022-08-09T18:45:00.806Z,3.63
2022-08-09T18:47:32.737Z,7.25
2022-08-09T18:50:05.934Z,3.30
2022-08-09T18:52:36.016Z,4.88
2022-08-09T18:55:03.988Z,3.70
2022-08-09T18:57:43.232Z,4.22
2022-08-09T19:00:16.748Z,4.32
2022-08-09T19:05:20.333Z,4.60
2022-08-09T19:08:09.715Z,3.50
2022-08-09T19:10:39.181Z,6.32
2022-08-09T19:13:19.265Z,10.15
2022-08-09T19:15:51.705Z,6.10
2022-08-09T19:18:33.351Z,6.07
2022-08-09T19:21:09.662Z,3.40
2022-08-09T19:24:36.456Z,4.93
2022-08-09T19:26:31.958Z,4.00
2022-08-09T19:29:01.522Z,4.00
2022-08-09T19:31:44.344Z,3.97
2022-08-09T19:34:22.298Z,5.57
2022-08-09T19:36:51.426Z,3.25
2022-08-09T19:39:21.036Z,3.35
2022-08-09T19:42:05.402Z,7.18
2022-08-09T19:44:34.020Z,3.75
2022-08-09T19:47:01.604Z,3.70
2022-08-09T19:50:07.565Z,2.63
2022-08-09T19:52:15.622Z,3.83
2022-08-09T19:54:45.142Z,7.43
2022-08-09T19:57:12.243Z,14.35
2022-08-09T20:00:01.913Z,4.47
2022-08-09T20:04:08.276Z,3.90
2022-08-09T20:05:16.441Z,4.03
2022-08-09T20:07:56.915Z,4.10
2022-08-09T20:10:34.030Z,5.13
2022-08-09T20:13:02.975Z,4.13
2022-08-09T20:16:33.755Z,6.00
2022-08-09T20:18:18.785Z,8.45
2022-08-09T20:20:46.897Z,3.60
2022-08-09T20:23:13.625Z,3.88
2022-08-09T20:25:52.144Z,3.35
2022-08-09T20:28:27.753Z,4.60
2022-08-09T20:31:04.550Z,3.85
2022-08-09T20:33:41.045Z,4.38
2022-08-09T20:36:11.348Z,4.22
2022-08-09T20:39:18.772Z,4.15
2022-08-09T20:41:35.033Z,5.45
2022-08-09T20:44:09.836Z,4.32
2022-08-09T20:46:44.424Z,4.00
2022-08-09T20:49:13.978Z,4.15
2022-08-09T20:51:42.567Z,3.17
2022-08-09T20:54:12.732Z,3.95
2022-08-09T20:56:44.196Z,3.00
2022-08-09T20:59:16.750Z,3.08
2022-08-09T21:01:49.925Z,3.83
2022-08-09T21:05:56.232Z,3.20
2022-08-09T21:07:11.734Z,4.55
2022-08-09T21:09:45.353Z,3.72
2022-08-09T21:14:48.244Z,2.88
2022-08-09T21:18:22.064Z,3.75
2022-08-09T21:20:22.139Z,3.30
2022-08-09T21:22:54.545Z,4.05
2022-08-09T21:25:43.761Z,5.18
2022-08-09T21:28:12.023Z,4.82
2022-08-09T21:30:42.352Z,3.40
2022-08-09T21:33:09.874Z,4.15
2022-08-09T21:35:39.538Z,7.10
2022-08-09T21:38:10.649Z,3.63
2022-08-09T21:40:39.337Z,5.72
2022-08-09T21:43:07.956Z,3.78
2022-08-09T21:45:39.185Z,3.67
2022-08-09T21:48:07.196Z,3.33
2022-08-09T21:50:39.186Z,3.97
2022-08-09T21:53:15.557Z,3.08
2022-08-09T21:55:50.858Z,6.22
2022-08-09T21:58:17.531Z,3.30
2022-08-09T22:00:44.177Z,3.10
2022-08-09T22:03:19.637Z,3.10
2022-08-09T22:05:53.303Z,3.63
2022-08-09T22:08:22.963Z,3.60
2022-08-09T22:11:50.136Z,9.27
2022-08-09T22:13:39.244Z,4.25
2022-08-09T22:16:10.961Z,5.93
2022-08-09T22:18:52.204Z,5.65
2022-08-09T22:21:45.223Z,3.88
2022-08-09T22:24:17.095Z,4.53
2022-08-09T22:26:51.731Z,4.20
2022-08-09T22:29:19.115Z,4.07
2022-08-09T22:31:57.374Z,4.47
2022-08-09T22:34:26.397Z,8.35
2022-08-09T22:36:57.874Z,4.22
2022-08-09T22:39:58.048Z,4.88
2022-08-09T22:42:23.312Z,4.10
2022-08-09T22:48:04.533Z,5.60
2022-08-09T22:48:15.097Z,5.40
2022-08-09T22:50:29.636Z,5.85
2022-08-09T22:52:57.766Z,3.83
2022-08-09T22:55:33.700Z,6.18
2022-08-09T22:58:20.357Z,4.82
2022-08-09T23:00:59.713Z,4.85
2022-08-09T23:03:31.224Z,5.05
2022-08-09T23:06:14.272Z,5.45
2022-08-09T23:08:44.420Z,5.65
2022-08-09T23:11:16.962Z,5.45
2022-08-09T23:13:43.799Z,4.25
2022-08-09T23:16:11.681Z,5.50
2022-08-09T23:18:38.970Z,5.07
2022-08-09T23:21:06.886Z,4.75
2022-08-09T23:23:34.182Z,6.75
2022-08-09T23:26:01.306Z,6.55
2022-08-09T23:28:27.937Z,5.13
2022-08-09T23:30:54.599Z,6.05
2022-08-09T23:33:22.690Z,8.57
2022-08-09T23:36:06.485Z,4.70
2022-08-09T23:38:33.945Z,5.78
2022-08-09T23:41:01.493Z,10.68
2022-08-09T23:43:28.080Z,5.95
2022-08-09T23:45:54.674Z,6.63
2022-08-09T23:48:21.435Z,5.80
2022-08-09T23:50:48.031Z,7.88
2022-08-09T23:53:15.958Z,11.55
2022-08-09T23:55:46.233Z,6.43
2022-08-09T23:58:24.318Z,9.77
